sensor_id;sensor_type;location;lat;lon;timestamp;P1;durP1;ratioP1;P2;durP2;ratioP2
16139;SDS011;8175;49.326;12.690;2022-12-29T00:01:53;2.63;;;2.17;;
16139;SDS011;8175;49.326;12.690;2022-12-29T00:04:20;4.07;;;2.40;;
16139;SDS011;8175;49.326;12.690;2022-12-29T00:06:46;2.00;;;1.80;;
16139;SDS011;8175;49.326;12.690;2022-12-29T00:09:13;2.03;;;1.77;;
16139;SDS011;8175;49.326;12.690;2022-12-29T00:11:40;1.90;;;1.70;;
16139;SDS011;8175;49.326;12.690;2022-12-29T00:14:08;2.97;;;2.33;;
16139;SDS011;8175;49.326;12.690;2022-12-29T00:16:52;2.43;;;2.17;;
16139;SDS011;8175;49.326;12.690;2022-12-29T00:19:18;2.63;;;2.00;;
16139;SDS011;8175;49.326;12.690;2022-12-29T00:22:02;2.37;;;2.00;;
16139;SDS011;8175;49.326;12.690;2022-12-29T00:24:46;2.77;;;2.10;;
16139;SDS011;8175;49.326;12.690;2022-12-29T00:27:31;1.97;;;1.77;;
16139;SDS011;8175;49.326;12.690;2022-12-29T00:30:19;2.53;;;2.23;;
16139;SDS011;8175;49.326;12.690;2022-12-29T00:33:08;2.23;;;2.03;;
16139;SDS011;8175;49.326;12.690;2022-12-29T00:36:00;2.47;;;1.73;;
16139;SDS011;8175;49.326;12.690;2022-12-29T00:38:31;3.10;;;2.03;;
16139;SDS011;8175;49.326;12.690;2022-12-29T00:41:19;3.50;;;1.80;;
16139;SDS011;8175;49.326;12.690;2022-12-29T00:44:03;2.47;;;1.80;;
16139;SDS011;8175;49.326;12.690;2022-12-29T00:46:32;2.10;;;1.90;;
16139;SDS011;8175;49.326;12.690;2022-12-29T00:48:58;2.23;;;2.00;;
16139;SDS011;8175;49.326;12.690;2022-12-29T00:51:43;1.77;;;1.60;;
16139;SDS011;8175;49.326;12.690;2022-12-29T00:54:09;2.37;;;2.00;;
16139;SDS011;8175;49.326;12.690;2022-12-29T00:56:35;2.40;;;2.17;;
16139;SDS011;8175;49.326;12.690;2022-12-29T00:59:02;2.47;;;2.20;;
16139;SDS011;8175;49.326;12.690;2022-12-29T01:01:32;2.60;;;1.77;;
16139;SDS011;8175;49.326;12.690;2022-12-29T01:03:58;2.67;;;1.67;;
16139;SDS011;8175;49.326;12.690;2022-12-29T01:06:24;1.90;;;1.70;;
16139;SDS011;8175;49.326;12.690;2022-12-29T01:08:50;2.50;;;1.83;;
16139;SDS011;8175;49.326;12.690;2022-12-29T01:11:36;2.23;;;1.90;;
16139;SDS011;8175;49.326;12.690;2022-12-29T01:14:02;1.80;;;1.70;;
16139;SDS011;8175;49.326;12.690;2022-12-29T01:16:28;2.30;;;2.10;;
16139;SDS011;8175;49.326;12.690;2022-12-29T01:18:54;1.83;;;1.40;;
16139;SDS011;8175;49.326;12.690;2022-12-29T01:21:20;2.27;;;1.90;;
16139;SDS011;8175;49.326;12.690;2022-12-29T01:23:45;3.17;;;1.87;;
16139;SDS011;8175;49.326;12.690;2022-12-29T01:26:12;1.97;;;1.60;;
16139;SDS011;8175;49.326;12.690;2022-12-29T01:28:38;1.90;;;1.80;;
16139;SDS011;8175;49.326;12.690;2022-12-29T01:31:08;2.07;;;1.80;;
16139;SDS011;8175;49.326;12.690;2022-12-29T01:33:34;1.80;;;1.70;;
16139;SDS011;8175;49.326;12.690;2022-12-29T01:36:04;4.13;;;2.47;;
16139;SDS011;8175;49.326;12.690;2022-12-29T01:38:32;2.80;;;1.93;;
16139;SDS011;8175;49.326;12.690;2022-12-29T01:40:58;1.80;;;1.47;;
16139;SDS011;8175;49.326;12.690;2022-12-29T01:46:22;2.73;;;1.70;;
16139;SDS011;8175;49.326;12.690;2022-12-29T01:48:53;1.90;;;1.70;;
16139;SDS011;8175;49.326;12.690;2022-12-29T01:51:24;2.50;;;1.80;;
16139;SDS011;8175;49.326;12.690;2022-12-29T01:53:51;2.50;;;1.27;;
16139;SDS011;8175;49.326;12.690;2022-12-29T01:56:20;2.10;;;1.90;;
16139;SDS011;8175;49.326;12.690;2022-12-29T01:58:47;1.50;;;1.40;;
16139;SDS011;8175;49.326;12.690;2022-12-29T02:01:18;2.23;;;1.73;;
16139;SDS011;8175;49.326;12.690;2022-12-29T02:03:45;1.63;;;1.53;;
16139;SDS011;8175;49.326;12.690;2022-12-29T02:06:13;1.73;;;1.57;;
16139;SDS011;8175;49.326;12.690;2022-12-29T02:08:42;1.50;;;1.37;;
16139;SDS011;8175;49.326;12.690;2022-12-29T02:11:11;1.90;;;1.50;;
16139;SDS011;8175;49.326;12.690;2022-12-29T02:13:37;2.20;;;1.67;;
16139;SDS011;8175;49.326;12.690;2022-12-29T02:24:43;2.27;;;1.50;;
16139;SDS011;8175;49.326;12.690;2022-12-29T02:35:48;1.60;;;1.50;;
16139;SDS011;8175;49.326;12.690;2022-12-29T02:41:10;1.70;;;1.60;;
16139;SDS011;8175;49.326;12.690;2022-12-29T02:43:44;1.87;;;1.50;;
16139;SDS011;8175;49.326;12.690;2022-12-29T02:46:16;1.80;;;1.70;;
16139;SDS011;8175;49.326;12.690;2022-12-29T02:51:52;2.00;;;1.63;;
16139;SDS011;8175;49.326;12.690;2022-12-29T02:54:28;2.37;;;1.60;;
16139;SDS011;8175;49.326;12.690;2022-12-29T02:59:55;1.90;;;1.70;;
16139;SDS011;8175;49.326;12.690;2022-12-29T03:11:13;1.60;;;1.50;;
16139;SDS011;8175;49.326;12.690;2022-12-29T03:14:08;2.53;;;1.70;;
16139;SDS011;8175;49.326;12.690;2022-12-29T03:17:06;2.20;;;1.40;;
16139;SDS011;8175;49.326;12.690;2022-12-29T03:19:36;2.33;;;1.73;;
16139;SDS011;8175;49.326;12.690;2022-12-29T03:22:13;1.60;;;1.50;;
16139;SDS011;8175;49.326;12.690;2022-12-29T03:25:15;1.43;;;1.27;;
16139;SDS011;8175;49.326;12.690;2022-12-29T03:27:51;2.27;;;1.40;;
16139;SDS011;8175;49.326;12.690;2022-12-29T03:30:21;1.43;;;1.20;;
16139;SDS011;8175;49.326;12.690;2022-12-29T03:32:49;2.17;;;1.50;;
16139;SDS011;8175;49.326;12.690;2022-12-29T03:35:19;3.13;;;1.73;;
16139;SDS011;8175;49.326;12.690;2022-12-29T03:38:11;1.27;;;1.10;;
16139;SDS011;8175;49.326;12.690;2022-12-29T03:40:46;1.37;;;1.00;;
16139;SDS011;8175;49.326;12.690;2022-12-29T03:43:17;2.67;;;1.53;;
16139;SDS011;8175;49.326;12.690;2022-12-29T03:45:44;1.90;;;1.30;;
16139;SDS011;8175;49.326;12.690;2022-12-29T03:48:09;1.50;;;1.40;;
16139;SDS011;8175;49.326;12.690;2022-12-29T03:50:35;1.53;;;1.40;;
16139;SDS011;8175;49.326;12.690;2022-12-29T03:53:00;1.40;;;1.20;;
16139;SDS011;8175;49.326;12.690;2022-12-29T03:55:26;1.43;;;1.30;;
16139;SDS011;8175;49.326;12.690;2022-12-29T03:57:52;3.33;;;1.70;;
16139;SDS011;8175;49.326;12.690;2022-12-29T04:00:17;3.20;;;1.27;;
16139;SDS011;8175;49.326;12.690;2022-12-29T04:02:43;1.63;;;1.53;;
16139;SDS011;8175;49.326;12.690;2022-12-29T04:05:09;2.33;;;1.77;;
16139;SDS011;8175;49.326;12.690;2022-12-29T04:07:34;2.30;;;1.57;;
16139;SDS011;8175;49.326;12.690;2022-12-29T04:10:00;2.20;;;1.70;;
16139;SDS011;8175;49.326;12.690;2022-12-29T04:12:25;1.80;;;1.50;;
16139;SDS011;8175;49.326;12.690;2022-12-29T04:14:51;1.63;;;1.53;;
16139;SDS011;8175;49.326;12.690;2022-12-29T04:17:17;1.80;;;1.70;;
16139;SDS011;8175;49.326;12.690;2022-12-29T04:19:42;2.37;;;2.17;;
16139;SDS011;8175;49.326;12.690;2022-12-29T04:22:08;2.00;;;1.80;;
16139;SDS011;8175;49.326;12.690;2022-12-29T04:24:33;2.40;;;1.70;;
16139;SDS011;8175;49.326;12.690;2022-12-29T04:26:59;1.80;;;1.50;;
16139;SDS011;8175;49.326;12.690;2022-12-29T04:29:25;2.13;;;1.73;;
16139;SDS011;8175;49.326;12.690;2022-12-29T04:31:50;2.33;;;1.70;;
16139;SDS011;8175;49.326;12.690;2022-12-29T04:34:16;3.10;;;1.30;;
16139;SDS011;8175;49.326;12.690;2022-12-29T04:36:41;2.77;;;1.50;;
16139;SDS011;8175;49.326;12.690;2022-12-29T04:39:07;2.10;;;1.70;;
16139;SDS011;8175;49.326;12.690;2022-12-29T04:41:33;1.50;;;1.20;;
16139;SDS011;8175;49.326;12.690;2022-12-29T04:43:58;2.23;;;1.70;;
16139;SDS011;8175;49.326;12.690;2022-12-29T04:46:24;2.63;;;1.60;;
16139;SDS011;8175;49.326;12.690;2022-12-29T04:48:50;1.90;;;1.17;;
16139;SDS011;8175;49.326;12.690;2022-12-29T04:51:15;1.50;;;1.40;;
16139;SDS011;8175;49.326;12.690;2022-12-29T04:53:41;1.87;;;1.27;;
16139;SDS011;8175;49.326;12.690;2022-12-29T04:56:07;2.60;;;1.30;;
16139;SDS011;8175;49.326;12.690;2022-12-29T04:58:34;1.30;;;1.20;;
16139;SDS011;8175;49.326;12.690;2022-12-29T05:01:00;1.40;;;1.30;;
16139;SDS011;8175;49.326;12.690;2022-12-29T05:03:25;2.50;;;1.20;;
16139;SDS011;8175;49.326;12.690;2022-12-29T05:05:54;1.63;;;1.27;;
16139;SDS011;8175;49.326;12.690;2022-12-29T05:08:21;1.53;;;1.30;;
16139;SDS011;8175;49.326;12.690;2022-12-29T05:10:49;1.50;;;1.30;;
16139;SDS011;8175;49.326;12.690;2022-12-29T05:13:15;1.97;;;1.50;;
16139;SDS011;8175;49.326;12.690;2022-12-29T05:15:45;1.77;;;1.40;;
16139;SDS011;8175;49.326;12.690;2022-12-29T05:18:20;1.30;;;1.20;;
16139;SDS011;8175;49.326;12.690;2022-12-29T05:20:46;2.30;;;1.57;;
16139;SDS011;8175;49.326;12.690;2022-12-29T05:23:12;1.70;;;1.60;;
16139;SDS011;8175;49.326;12.690;2022-12-29T05:25:38;1.27;;;1.17;;
16139;SDS011;8175;49.326;12.690;2022-12-29T05:28:04;1.93;;;1.73;;
16139;SDS011;8175;49.326;12.690;2022-12-29T05:30:29;1.70;;;1.40;;
16139;SDS011;8175;49.326;12.690;2022-12-29T05:32:55;1.57;;;1.47;;
16139;SDS011;8175;49.326;12.690;2022-12-29T05:35:21;2.00;;;1.80;;
16139;SDS011;8175;49.326;12.690;2022-12-29T05:37:46;1.73;;;1.57;;
16139;SDS011;8175;49.326;12.690;2022-12-29T05:40:12;2.13;;;1.30;;
16139;SDS011;8175;49.326;12.690;2022-12-29T05:42:37;1.70;;;1.60;;
16139;SDS011;8175;49.326;12.690;2022-12-29T05:45:03;2.17;;;1.30;;
16139;SDS011;8175;49.326;12.690;2022-12-29T05:47:32;2.07;;;1.57;;
16139;SDS011;8175;49.326;12.690;2022-12-29T05:49:57;2.83;;;1.33;;
16139;SDS011;8175;49.326;12.690;2022-12-29T05:52:23;3.60;;;1.70;;
16139;SDS011;8175;49.326;12.690;2022-12-29T05:54:49;1.67;;;1.57;;
16139;SDS011;8175;49.326;12.690;2022-12-29T05:57:14;1.40;;;1.30;;
16139;SDS011;8175;49.326;12.690;2022-12-29T05:59:40;1.60;;;1.30;;
16139;SDS011;8175;49.326;12.690;2022-12-29T06:02:05;1.57;;;1.30;;
16139;SDS011;8175;49.326;12.690;2022-12-29T06:04:31;1.40;;;1.30;;
16139;SDS011;8175;49.326;12.690;2022-12-29T06:06:56;1.43;;;1.33;;
16139;SDS011;8175;49.326;12.690;2022-12-29T06:09:22;1.73;;;1.60;;
16139;SDS011;8175;49.326;12.690;2022-12-29T06:11:48;1.43;;;1.33;;
16139;SDS011;8175;49.326;12.690;2022-12-29T06:14:13;1.23;;;1.13;;
16139;SDS011;8175;49.326;12.690;2022-12-29T06:16:39;1.60;;;1.13;;
16139;SDS011;8175;49.326;12.690;2022-12-29T06:19:04;2.40;;;1.67;;
16139;SDS011;8175;49.326;12.690;2022-12-29T06:21:30;3.43;;;1.50;;
16139;SDS011;8175;49.326;12.690;2022-12-29T06:23:56;1.20;;;1.10;;
16139;SDS011;8175;49.326;12.690;2022-12-29T06:26:21;1.30;;;1.20;;
16139;SDS011;8175;49.326;12.690;2022-12-29T06:28:47;1.50;;;1.27;;
16139;SDS011;8175;49.326;12.690;2022-12-29T06:31:12;1.50;;;1.00;;
16139;SDS011;8175;49.326;12.690;2022-12-29T06:33:38;1.23;;;1.13;;
16139;SDS011;8175;49.326;12.690;2022-12-29T06:36:04;3.53;;;2.30;;
16139;SDS011;8175;49.326;12.690;2022-12-29T06:38:29;1.53;;;1.30;;
16139;SDS011;8175;49.326;12.690;2022-12-29T06:40:55;1.30;;;1.20;;
16139;SDS011;8175;49.326;12.690;2022-12-29T06:43:21;1.73;;;1.57;;
16139;SDS011;8175;49.326;12.690;2022-12-29T06:45:47;1.73;;;1.50;;
16139;SDS011;8175;49.326;12.690;2022-12-29T06:48:12;2.90;;;2.23;;
16139;SDS011;8175;49.326;12.690;2022-12-29T06:50:38;1.63;;;1.33;;
16139;SDS011;8175;49.326;12.690;2022-12-29T06:53:03;2.13;;;1.50;;
16139;SDS011;8175;49.326;12.690;2022-12-29T06:55:29;1.57;;;1.47;;
16139;SDS011;8175;49.326;12.690;2022-12-29T06:57:55;1.70;;;1.40;;
16139;SDS011;8175;49.326;12.690;2022-12-29T07:00:22;2.73;;;1.50;;
16139;SDS011;8175;49.326;12.690;2022-12-29T07:02:48;1.40;;;1.27;;
16139;SDS011;8175;49.326;12.690;2022-12-29T07:05:14;1.70;;;1.57;;
16139;SDS011;8175;49.326;12.690;2022-12-29T07:07:39;1.77;;;1.20;;
16139;SDS011;8175;49.326;12.690;2022-12-29T07:10:05;3.70;;;1.60;;
16139;SDS011;8175;49.326;12.690;2022-12-29T07:12:31;2.40;;;1.40;;
16139;SDS011;8175;49.326;12.690;2022-12-29T07:14:56;1.83;;;1.60;;
16139;SDS011;8175;49.326;12.690;2022-12-29T07:17:22;1.50;;;1.40;;
16139;SDS011;8175;49.326;12.690;2022-12-29T07:19:48;2.53;;;1.70;;
16139;SDS011;8175;49.326;12.690;2022-12-29T07:22:13;2.30;;;1.70;;
16139;SDS011;8175;49.326;12.690;2022-12-29T07:24:39;1.97;;;1.53;;
16139;SDS011;8175;49.326;12.690;2022-12-29T07:27:05;1.50;;;1.40;;
16139;SDS011;8175;49.326;12.690;2022-12-29T07:29:30;2.17;;;1.40;;
16139;SDS011;8175;49.326;12.690;2022-12-29T07:31:56;2.67;;;1.80;;
16139;SDS011;8175;49.326;12.690;2022-12-29T07:34:21;1.50;;;1.20;;
16139;SDS011;8175;49.326;12.690;2022-12-29T07:36:47;3.03;;;2.27;;
16139;SDS011;8175;49.326;12.690;2022-12-29T07:39:13;2.77;;;1.47;;
16139;SDS011;8175;49.326;12.690;2022-12-29T07:41:38;1.50;;;1.40;;
16139;SDS011;8175;49.326;12.690;2022-12-29T07:44:04;1.57;;;1.40;;
16139;SDS011;8175;49.326;12.690;2022-12-29T07:46:29;1.87;;;1.20;;
16139;SDS011;8175;49.326;12.690;2022-12-29T07:48:55;2.30;;;1.17;;
16139;SDS011;8175;49.326;12.690;2022-12-29T07:51:20;2.93;;;1.47;;
16139;SDS011;8175;49.326;12.690;2022-12-29T07:53:46;1.77;;;1.30;;
16139;SDS011;8175;49.326;12.690;2022-12-29T07:56:12;1.73;;;1.50;;
16139;SDS011;8175;49.326;12.690;2022-12-29T07:58:37;1.47;;;1.37;;
16139;SDS011;8175;49.326;12.690;2022-12-29T08:01:03;1.07;;;0.97;;
16139;SDS011;8175;49.326;12.690;2022-12-29T08:03:30;1.93;;;1.50;;
16139;SDS011;8175;49.326;12.690;2022-12-29T08:05:56;1.30;;;1.20;;
16139;SDS011;8175;49.326;12.690;2022-12-29T08:08:21;1.90;;;1.07;;
16139;SDS011;8175;49.326;12.690;2022-12-29T08:10:47;1.20;;;1.03;;
16139;SDS011;8175;49.326;12.690;2022-12-29T08:13:13;1.83;;;1.30;;
16139;SDS011;8175;49.326;12.690;2022-12-29T08:15:38;2.03;;;1.10;;
16139;SDS011;8175;49.326;12.690;2022-12-29T08:18:04;1.23;;;1.13;;
16139;SDS011;8175;49.326;12.690;2022-12-29T08:20:30;2.40;;;1.30;;
16139;SDS011;8175;49.326;12.690;2022-12-29T08:22:57;1.17;;;1.00;;
16139;SDS011;8175;49.326;12.690;2022-12-29T08:25:22;1.40;;;1.30;;
16139;SDS011;8175;49.326;12.690;2022-12-29T08:27:48;1.37;;;1.13;;
16139;SDS011;8175;49.326;12.690;2022-12-29T08:30:13;1.47;;;1.37;;
16139;SDS011;8175;49.326;12.690;2022-12-29T08:32:39;1.57;;;1.40;;
16139;SDS011;8175;49.326;12.690;2022-12-29T08:35:05;1.77;;;1.67;;
16139;SDS011;8175;49.326;12.690;2022-12-29T08:37:32;1.47;;;1.37;;
16139;SDS011;8175;49.326;12.690;2022-12-29T08:39:58;1.57;;;1.47;;
16139;SDS011;8175;49.326;12.690;2022-12-29T08:42:24;2.07;;;1.13;;
16139;SDS011;8175;49.326;12.690;2022-12-29T08:44:55;1.60;;;1.50;;
16139;SDS011;8175;49.326;12.690;2022-12-29T08:47:22;1.83;;;1.13;;
16139;SDS011;8175;49.326;12.690;2022-12-29T08:49:47;2.07;;;1.50;;
16139;SDS011;8175;49.326;12.690;2022-12-29T08:52:13;2.13;;;1.60;;
16139;SDS011;8175;49.326;12.690;2022-12-29T08:54:39;2.63;;;1.70;;
16139;SDS011;8175;49.326;12.690;2022-12-29T08:57:04;1.70;;;1.60;;
16139;SDS011;8175;49.326;12.690;2022-12-29T08:59:30;2.90;;;1.70;;
16139;SDS011;8175;49.326;12.690;2022-12-29T09:01:56;1.97;;;1.57;;
16139;SDS011;8175;49.326;12.690;2022-12-29T09:04:21;3.03;;;1.93;;
16139;SDS011;8175;49.326;12.690;2022-12-29T09:06:48;2.47;;;2.27;;
16139;SDS011;8175;49.326;12.690;2022-12-29T09:09:14;3.57;;;2.10;;
16139;SDS011;8175;49.326;12.690;2022-12-29T09:11:41;2.23;;;1.90;;
16139;SDS011;8175;49.326;12.690;2022-12-29T09:14:07;1.70;;;1.60;;
16139;SDS011;8175;49.326;12.690;2022-12-29T09:16:32;2.37;;;1.77;;
16139;SDS011;8175;49.326;12.690;2022-12-29T09:18:59;3.20;;;1.50;;
16139;SDS011;8175;49.326;12.690;2022-12-29T09:21:24;2.23;;;1.40;;
16139;SDS011;8175;49.326;12.690;2022-12-29T09:23:50;2.07;;;1.70;;
16139;SDS011;8175;49.326;12.690;2022-12-29T09:26:16;1.53;;;1.37;;
16139;SDS011;8175;49.326;12.690;2022-12-29T09:28:41;1.73;;;1.40;;
16139;SDS011;8175;49.326;12.690;2022-12-29T09:31:09;1.77;;;1.50;;
16139;SDS011;8175;49.326;12.690;2022-12-29T09:33:35;1.73;;;1.40;;
16139;SDS011;8175;49.326;12.690;2022-12-29T09:36:01;2.03;;;1.37;;
16139;SDS011;8175;49.326;12.690;2022-12-29T09:38:27;3.67;;;1.90;;
16139;SDS011;8175;49.326;12.690;2022-12-29T09:40:55;1.43;;;1.13;;
16139;SDS011;8175;49.326;12.690;2022-12-29T09:43:56;1.50;;;1.40;;
16139;SDS011;8175;49.326;12.690;2022-12-29T09:46:44;2.90;;;1.73;;
16139;SDS011;8175;49.326;12.690;2022-12-29T09:52:05;2.30;;;1.30;;
16139;SDS011;8175;49.326;12.690;2022-12-29T09:54:53;2.73;;;1.90;;
16139;SDS011;8175;49.326;12.690;2022-12-29T09:57:21;2.17;;;1.50;;
16139;SDS011;8175;49.326;12.690;2022-12-29T09:59:50;1.60;;;1.50;;
16139;SDS011;8175;49.326;12.690;2022-12-29T10:02:32;1.90;;;1.43;;
16139;SDS011;8175;49.326;12.690;2022-12-29T10:05:12;1.70;;;1.60;;
16139;SDS011;8175;49.326;12.690;2022-12-29T10:07:50;2.03;;;1.23;;
16139;SDS011;8175;49.326;12.690;2022-12-29T10:10:30;1.43;;;1.23;;
16139;SDS011;8175;49.326;12.690;2022-12-29T10:23:59;1.37;;;1.27;;
16139;SDS011;8175;49.326;12.690;2022-12-29T10:26:27;2.10;;;1.50;;
16139;SDS011;8175;49.326;12.690;2022-12-29T10:29:02;2.83;;;2.30;;
16139;SDS011;8175;49.326;12.690;2022-12-29T10:34:31;1.17;;;1.07;;
16139;SDS011;8175;49.326;12.690;2022-12-29T10:37:11;2.30;;;1.27;;
16139;SDS011;8175;49.326;12.690;2022-12-29T10:39:51;1.73;;;1.47;;
16139;SDS011;8175;49.326;12.690;2022-12-29T10:44:58;1.07;;;0.97;;
16139;SDS011;8175;49.326;12.690;2022-12-29T10:47:25;1.33;;;1.23;;
16139;SDS011;8175;49.326;12.690;2022-12-29T10:49:54;2.57;;;1.50;;
16139;SDS011;8175;49.326;12.690;2022-12-29T10:52:23;1.50;;;1.10;;
16139;SDS011;8175;49.326;12.690;2022-12-29T10:54:53;1.53;;;1.23;;
16139;SDS011;8175;49.326;12.690;2022-12-29T10:59:57;1.80;;;1.27;;
16139;SDS011;8175;49.326;12.690;2022-12-29T11:02:43;1.60;;;1.30;;
16139;SDS011;8175;49.326;12.690;2022-12-29T11:05:34;1.67;;;1.53;;
16139;SDS011;8175;49.326;12.690;2022-12-29T11:08:13;1.87;;;1.63;;
16139;SDS011;8175;49.326;12.690;2022-12-29T11:10:44;1.30;;;1.00;;
16139;SDS011;8175;49.326;12.690;2022-12-29T11:15:54;1.87;;;1.20;;
16139;SDS011;8175;49.326;12.690;2022-12-29T11:20:54;1.50;;;1.20;;
16139;SDS011;8175;49.326;12.690;2022-12-29T11:23:32;2.50;;;1.30;;
16139;SDS011;8175;49.326;12.690;2022-12-29T11:28:39;1.80;;;1.50;;
16139;SDS011;8175;49.326;12.690;2022-12-29T11:31:07;2.40;;;1.20;;
16139;SDS011;8175;49.326;12.690;2022-12-29T11:33:37;3.07;;;1.80;;
16139;SDS011;8175;49.326;12.690;2022-12-29T11:36:08;4.37;;;1.77;;
16139;SDS011;8175;49.326;12.690;2022-12-29T11:38:42;1.87;;;1.10;;
16139;SDS011;8175;49.326;12.690;2022-12-29T11:41:12;2.00;;;1.77;;
16139;SDS011;8175;49.326;12.690;2022-12-29T11:43:43;2.23;;;1.60;;
16139;SDS011;8175;49.326;12.690;2022-12-29T11:46:14;2.03;;;1.30;;
16139;SDS011;8175;49.326;12.690;2022-12-29T11:48:45;2.00;;;1.50;;
16139;SDS011;8175;49.326;12.690;2022-12-29T11:51:12;2.50;;;1.60;;
16139;SDS011;8175;49.326;12.690;2022-12-29T11:53:46;1.80;;;1.60;;
16139;SDS011;8175;49.326;12.690;2022-12-29T11:56:17;2.00;;;1.40;;
16139;SDS011;8175;49.326;12.690;2022-12-29T11:58:58;3.03;;;1.50;;
16139;SDS011;8175;49.326;12.690;2022-12-29T12:02:00;1.30;;;1.20;;
16139;SDS011;8175;49.326;12.690;2022-12-29T12:04:36;1.70;;;1.27;;
16139;SDS011;8175;49.326;12.690;2022-12-29T12:07:17;2.30;;;1.40;;
16139;SDS011;8175;49.326;12.690;2022-12-29T12:09:57;4.50;;;1.63;;
16139;SDS011;8175;49.326;12.690;2022-12-29T12:12:35;2.43;;;1.50;;
16139;SDS011;8175;49.326;12.690;2022-12-29T12:15:12;2.43;;;1.43;;
16139;SDS011;8175;49.326;12.690;2022-12-29T12:17:57;4.50;;;1.80;;
16139;SDS011;8175;49.326;12.690;2022-12-29T12:20:46;2.27;;;1.63;;
16139;SDS011;8175;49.326;12.690;2022-12-29T12:23:19;1.50;;;1.33;;
16139;SDS011;8175;49.326;12.690;2022-12-29T12:28:45;2.30;;;1.40;;
16139;SDS011;8175;49.326;12.690;2022-12-29T12:31:21;2.73;;;1.50;;
16139;SDS011;8175;49.326;12.690;2022-12-29T12:33:50;1.50;;;1.20;;
16139;SDS011;8175;49.326;12.690;2022-12-29T12:36:30;2.13;;;1.40;;
16139;SDS011;8175;49.326;12.690;2022-12-29T12:50:45;2.30;;;1.30;;
16139;SDS011;8175;49.326;12.690;2022-12-29T12:53:19;1.80;;;1.30;;
16139;SDS011;8175;49.326;12.690;2022-12-29T12:58:49;2.00;;;1.20;;
16139;SDS011;8175;49.326;12.690;2022-12-29T13:01:38;4.97;;;2.30;;
16139;SDS011;8175;49.326;12.690;2022-12-29T13:19:52;2.83;;;1.70;;
16139;SDS011;8175;49.326;12.690;2022-12-29T13:22:44;3.63;;;1.70;;
16139;SDS011;8175;49.326;12.690;2022-12-29T13:25:28;1.83;;;1.40;;
16139;SDS011;8175;49.326;12.690;2022-12-29T13:28:05;2.10;;;1.27;;
16139;SDS011;8175;49.326;12.690;2022-12-29T13:33:41;1.63;;;1.43;;
16139;SDS011;8175;49.326;12.690;2022-12-29T13:36:25;2.37;;;1.37;;
16139;SDS011;8175;49.326;12.690;2022-12-29T13:41:44;1.53;;;1.43;;
16139;SDS011;8175;49.326;12.690;2022-12-29T13:44:16;2.90;;;1.90;;
16139;SDS011;8175;49.326;12.690;2022-12-29T13:46:46;1.63;;;1.53;;
16139;SDS011;8175;49.326;12.690;2022-12-29T13:49:20;1.97;;;1.50;;
16139;SDS011;8175;49.326;12.690;2022-12-29T13:51:50;2.03;;;1.17;;
16139;SDS011;8175;49.326;12.690;2022-12-29T13:54:35;3.07;;;1.30;;
16139;SDS011;8175;49.326;12.690;2022-12-29T14:00:17;3.40;;;2.70;;
16139;SDS011;8175;49.326;12.690;2022-12-29T14:07:46;1.50;;;1.40;;
16139;SDS011;8175;49.326;12.690;2022-12-29T14:13:17;2.97;;;1.90;;
16139;SDS011;8175;49.326;12.690;2022-12-29T14:15:54;7.00;;;3.10;;
16139;SDS011;8175;49.326;12.690;2022-12-29T14:18:25;2.00;;;1.70;;
16139;SDS011;8175;49.326;12.690;2022-12-29T14:23:43;2.17;;;1.93;;
16139;SDS011;8175;49.326;12.690;2022-12-29T14:26:14;3.70;;;2.47;;
16139;SDS011;8175;49.326;12.690;2022-12-29T14:28:56;2.70;;;1.73;;
16139;SDS011;8175;49.326;12.690;2022-12-29T14:36:40;2.03;;;1.43;;
16139;SDS011;8175;49.326;12.690;2022-12-29T14:42:10;2.73;;;2.13;;
16139;SDS011;8175;49.326;12.690;2022-12-29T14:47:19;4.57;;;2.60;;
16139;SDS011;8175;49.326;12.690;2022-12-29T14:49:51;4.70;;;2.20;;
16139;SDS011;8175;49.326;12.690;2022-12-29T14:52:19;2.20;;;1.70;;
16139;SDS011;8175;49.326;12.690;2022-12-29T14:54:51;3.00;;;2.20;;
16139;SDS011;8175;49.326;12.690;2022-12-29T14:59:55;3.87;;;1.70;;
16139;SDS011;8175;49.326;12.690;2022-12-29T15:02:40;3.47;;;1.87;;
16139;SDS011;8175;49.326;12.690;2022-12-29T15:05:19;2.33;;;1.80;;
16139;SDS011;8175;49.326;12.690;2022-12-29T15:08:08;2.03;;;1.50;;
16139;SDS011;8175;49.326;12.690;2022-12-29T15:10:40;1.80;;;1.50;;
16139;SDS011;8175;49.326;12.690;2022-12-29T15:13:16;1.73;;;1.50;;
16139;SDS011;8175;49.326;12.690;2022-12-29T15:15:46;3.07;;;1.70;;
16139;SDS011;8175;49.326;12.690;2022-12-29T15:18:33;4.63;;;1.80;;
16139;SDS011;8175;49.326;12.690;2022-12-29T15:21:00;1.60;;;1.50;;
16139;SDS011;8175;49.326;12.690;2022-12-29T15:23:34;2.57;;;1.70;;
16139;SDS011;8175;49.326;12.690;2022-12-29T15:26:05;2.73;;;1.60;;
16139;SDS011;8175;49.326;12.690;2022-12-29T15:28:45;2.63;;;1.87;;
16139;SDS011;8175;49.326;12.690;2022-12-29T15:31:12;2.30;;;1.77;;
16139;SDS011;8175;49.326;12.690;2022-12-29T15:33:43;2.80;;;1.90;;
16139;SDS011;8175;49.326;12.690;2022-12-29T15:36:13;2.97;;;1.80;;
16139;SDS011;8175;49.326;12.690;2022-12-29T15:38:50;2.17;;;1.73;;
16139;SDS011;8175;49.326;12.690;2022-12-29T15:44:42;3.00;;;1.90;;
16139;SDS011;8175;49.326;12.690;2022-12-29T15:47:28;3.73;;;1.67;;
16139;SDS011;8175;49.326;12.690;2022-12-29T15:52:52;4.43;;;1.57;;
16139;SDS011;8175;49.326;12.690;2022-12-29T15:55:20;4.43;;;1.60;;
16139;SDS011;8175;49.326;12.690;2022-12-29T15:57:57;1.57;;;1.33;;
16139;SDS011;8175;49.326;12.690;2022-12-29T16:00:30;1.30;;;1.20;;
16139;SDS011;8175;49.326;12.690;2022-12-29T16:03:01;3.43;;;1.67;;
16139;SDS011;8175;49.326;12.690;2022-12-29T16:05:36;3.43;;;1.70;;
16139;SDS011;8175;49.326;12.690;2022-12-29T16:08:03;3.47;;;1.83;;
16139;SDS011;8175;49.326;12.690;2022-12-29T16:10:58;5.63;;;1.83;;
16139;SDS011;8175;49.326;12.690;2022-12-29T16:13:30;2.37;;;1.97;;
16139;SDS011;8175;49.326;12.690;2022-12-29T16:16:58;3.03;;;2.23;;
16139;SDS011;8175;49.326;12.690;2022-12-29T16:18:57;6.07;;;4.60;;
16139;SDS011;8175;49.326;12.690;2022-12-29T16:23:53;5.47;;;3.80;;
16139;SDS011;8175;49.326;12.690;2022-12-29T16:26:21;2.87;;;2.40;;
16139;SDS011;8175;49.326;12.690;2022-12-29T16:28:49;1.70;;;1.60;;
16139;SDS011;8175;49.326;12.690;2022-12-29T16:31:23;3.77;;;1.80;;
16139;SDS011;8175;49.326;12.690;2022-12-29T16:33:54;2.53;;;1.80;;
16139;SDS011;8175;49.326;12.690;2022-12-29T16:36:24;4.20;;;3.53;;
16139;SDS011;8175;49.326;12.690;2022-12-29T16:38:50;6.07;;;5.47;;
16139;SDS011;8175;49.326;12.690;2022-12-29T16:41:29;35.00;;;21.93;;
16139;SDS011;8175;49.326;12.690;2022-12-29T16:44:11;34.00;;;17.27;;
16139;SDS011;8175;49.326;12.690;2022-12-29T16:49:42;8.13;;;3.70;;
16139;SDS011;8175;49.326;12.690;2022-12-29T16:52:22;4.00;;;2.13;;
16139;SDS011;8175;49.326;12.690;2022-12-29T16:54:53;17.57;;;7.90;;
16139;SDS011;8175;49.326;12.690;2022-12-29T16:57:24;4.80;;;2.63;;
16139;SDS011;8175;49.326;12.690;2022-12-29T17:00:00;16.17;;;7.83;;
16139;SDS011;8175;49.326;12.690;2022-12-29T17:02:30;13.53;;;7.43;;
16139;SDS011;8175;49.326;12.690;2022-12-29T17:04:58;32.33;;;15.77;;
16139;SDS011;8175;49.326;12.690;2022-12-29T17:07:24;16.97;;;9.80;;
16139;SDS011;8175;49.326;12.690;2022-12-29T17:09:52;8.43;;;5.33;;
16139;SDS011;8175;49.326;12.690;2022-12-29T17:12:27;24.37;;;13.07;;
16139;SDS011;8175;49.326;12.690;2022-12-29T17:14:58;32.93;;;16.27;;
16139;SDS011;8175;49.326;12.690;2022-12-29T17:17:33;20.03;;;10.13;;
16139;SDS011;8175;49.326;12.690;2022-12-29T17:20:05;46.13;;;23.27;;
16139;SDS011;8175;49.326;12.690;2022-12-29T17:22:50;8.73;;;5.67;;
16139;SDS011;8175;49.326;12.690;2022-12-29T17:25:27;3.03;;;2.43;;
16139;SDS011;8175;49.326;12.690;2022-12-29T17:28:02;6.87;;;4.13;;
16139;SDS011;8175;49.326;12.690;2022-12-29T17:30:35;6.43;;;4.40;;
16139;SDS011;8175;49.326;12.690;2022-12-29T17:33:04;8.30;;;5.27;;
16139;SDS011;8175;49.326;12.690;2022-12-29T17:35:33;3.00;;;2.33;;